Time;durP1;ratioP1;P1;durP2;ratioP2;P2;SDS_P1;SDS_P2;PMS_P1;PMS_P2;Temp;Humidity;BMP_temperature;BMP_pressure;BME280_temperature;BME280_humidity;BME280_pressure;Samples;Min_cycle;Max_cycle;Signal;HPM_P1;HPM_P2
2021/07/21 00:00:50;;;;;;;3.58;1.85;;;17.30;68.30;;;;;;4946962;28;20043;-74
2021/07/21 00:03:19;;;;;;;3.53;1.80;;;17.30;67.70;;;;;;5000867;28;20034;-74
2021/07/21 00:05:47;;;;;;;3.85;1.67;;;17.30;67.90;;;;;;4973961;28;20126;-74
2021/07/21 00:08:14;;;;;;;3.35;1.58;;;17.30;68.00;;;;;;4972466;28;20125;-74
2021/07/21 00:10:41;;;;;;;4.68;1.85;;;17.30;68.10;;;;;;4971422;28;20074;-74
2021/07/21 00:13:27;;;;;;;3.00;1.27;;;17.20;68.10;;;;;;4966408;28;20046;-74
2021/07/21 00:21:12;;;;;;;4.78;1.98;;;17.10;68.30;;;;;;4971782;28;20051;-74
2021/07/21 00:23:40;;;;;;;3.33;1.45;;;17.10;68.30;;;;;;4973429;28;20047;-74
2021/07/21 00:26:10;;;;;;;4.35;1.75;;;17.10;68.40;;;;;;5004061;28;20089;-74
2021/07/21 00:28:39;;;;;;;3.47;1.70;;;17.10;68.60;;;;;;4972888;28;20039;-74
2021/07/21 00:31:07;;;;;;;2.20;1.30;;;17.00;68.60;;;;;;4969189;28;20043;-74
2021/07/21 00:33:34;;;;;;;3.70;1.80;;;17.00;68.70;;;;;;4983477;28;20039;-74
2021/07/21 00:36:01;;;;;;;3.60;1.70;;;17.00;68.80;;;;;;4971801;28;20407;-74
2021/07/21 00:38:29;;;;;;;4.85;1.88;;;17.00;68.80;;;;;;4972317;28;20038;-74
2021/07/21 00:40:57;;;;;;;3.83;1.63;;;17.00;68.90;;;;;;4987334;28;20567;-74
2021/07/21 00:43:27;;;;;;;3.85;1.70;;;16.90;68.90;;;;;;4973101;28;20065;-75
2021/07/21 00:45:54;;;;;;;3.58;1.70;;;16.90;69.00;;;;;;4998905;28;20077;-74
2021/07/21 00:48:23;;;;;;;3.97;1.52;;;16.90;69.10;;;;;;4986274;28;20403;-74
2021/07/21 00:50:53;;;;;;;4.00;1.40;;;16.90;69.10;;;;;;4981702;28;20074;-75
2021/07/21 00:53:21;;;;;;;3.17;1.40;;;16.90;69.20;;;;;;4987138;28;20051;-74
2021/07/21 00:55:48;;;;;;;3.45;1.38;;;16.80;69.20;;;;;;4988800;28;20050;-75
2021/07/21 00:58:15;;;;;;;4.28;1.83;;;16.80;69.40;;;;;;4986463;28;20053;-74
2021/07/21 01:00:43;;;;;;;4.38;1.85;;;16.80;69.40;;;;;;4986964;28;20074;-74
2021/07/21 01:03:10;;;;;;;3.30;1.88;;;16.80;69.60;;;;;;4972053;28;20042;-74
2021/07/21 01:05:43;;;;;;;3.83;2.03;;;16.70;69.70;;;;;;4984744;28;20054;-75
2021/07/21 01:08:13;;;;;;;6.03;2.20;;;16.70;69.90;;;;;;4985665;28;20048;-75
2021/07/21 01:11:12;;;;;;;6.00;2.03;;;16.70;70.00;;;;;;4969994;28;20129;-74
2021/07/21 01:14:19;;;;;;;3.67;1.60;;;16.70;70.00;;;;;;4973878;28;20054;-74
2021/07/21 01:17:04;;;;;;;3.97;1.60;;;16.70;70.00;;;;;;4969450;28;20050;-74
2021/07/21 01:19:47;;;;;;;3.17;1.40;;;16.60;70.00;;;;;;4998639;28;20043;-80
2021/07/21 01:22:19;;;;;;;3.88;1.92;;;16.60;70.20;;;;;;4976516;28;20452;-80
2021/07/21 01:25:06;;;;;;;4.30;2.03;;;16.50;70.30;;;;;;4982965;28;20531;-80
2021/07/21 01:27:47;;;;;;;3.40;1.50;;;16.50;70.40;;;;;;4987953;28;20514;-80
2021/07/21 01:30:19;;;;;;;4.80;2.13;;;16.40;70.50;;;;;;5002225;28;20065;-80
2021/07/21 01:33:07;;;;;;;4.65;2.03;;;16.40;70.60;;;;;;4990731;28;20085;-80
2021/07/21 01:35:45;;;;;;;4.28;1.80;;;16.40;70.80;;;;;;4972858;28;20061;-80
2021/07/21 01:38:21;;;;;;;4.38;1.58;;;16.40;70.80;;;;;;5005995;28;20102;-80
2021/07/21 01:40:55;;;;;;;4.22;1.45;;;16.40;70.80;;;;;;4973353;28;20134;-80
2021/07/21 01:43:30;;;;;;;3.58;1.70;;;16.40;70.90;;;;;;5002155;28;20035;-80
2021/07/21 01:46:02;;;;;;;3.80;1.60;;;16.40;70.90;;;;;;4988478;28;20101;-80
2021/07/21 01:48:33;;;;;;;4.47;1.60;;;16.30;71.00;;;;;;4988531;28;20074;-80
2021/07/21 01:51:01;;;;;;;4.25;1.85;;;16.30;71.10;;;;;;5001323;28;20509;-80
2021/07/21 01:53:33;;;;;;;3.55;1.30;;;16.30;71.20;;;;;;4995981;28;20043;-80
2021/07/21 01:56:07;;;;;;;4.13;1.83;;;16.30;71.20;;;;;;4981499;28;20487;-80
2021/07/21 01:58:37;;;;;;;3.25;1.35;;;16.20;71.20;;;;;;4978398;28;20039;-80
2021/07/21 02:01:24;;;;;;;5.68;1.90;;;16.20;71.30;;;;;;4984683;28;20054;-80
2021/07/21 02:03:51;;;;;;;4.00;1.60;;;16.20;71.50;;;;;;5000529;28;20047;-80
2021/07/21 02:06:31;;;;;;;4.45;1.50;;;16.20;71.60;;;;;;4972940;28;20046;-80
2021/07/21 02:09:00;;;;;;;3.05;1.52;;;16.10;71.70;;;;;;4975715;28;20055;-80
2021/07/21 02:11:29;;;;;;;3.50;1.42;;;16.20;71.80;;;;;;4971664;28;20525;-80
2021/07/21 02:14:00;;;;;;;4.60;1.83;;;16.10;71.80;;;;;;4987728;28;20388;-80
2021/07/21 02:16:37;;;;;;;5.40;1.85;;;16.20;71.80;;;;;;4972623;28;20126;-80
2021/07/21 02:19:08;;;;;;;3.45;1.35;;;16.20;71.80;;;;;;4961619;28;20129;-80
2021/07/21 02:21:50;;;;;;;3.50;1.60;;;16.10;71.90;;;;;;4986355;28;20047;-80
2021/07/21 02:24:17;;;;;;;3.10;1.30;;;16.10;71.90;;;;;;4987532;28;20141;-80
2021/07/21 02:26:54;;;;;;;3.25;1.50;;;16.10;72.00;;;;;;4971522;28;20054;-81
2021/07/21 02:29:22;;;;;;;3.50;1.50;;;16.00;72.10;;;;;;5000082;28;20038;-80
2021/07/21 02:32:08;;;;;;;4.45;1.65;;;16.00;72.20;;;;;;4987280;28;20051;-80
2021/07/21 02:34:36;;;;;;;3.35;1.27;;;16.00;72.20;;;;;;4964980;28;20472;-80
2021/07/21 02:37:04;;;;;;;3.85;1.98;;;16.00;72.20;;;;;;4970629;28;20057;-80
2021/07/21 02:39:43;;;;;;;5.50;1.70;;;16.00;72.30;;;;;;4987217;28;20411;-80
2021/07/21 02:42:12;;;;;;;3.75;1.67;;;15.90;72.40;;;;;;4972283;28;20055;-80
2021/07/21 02:44:45;;;;;;;3.47;1.17;;;15.90;72.50;;;;;;4987378;28;20048;-80
2021/07/21 02:47:14;;;;;;;3.67;1.80;;;15.90;72.60;;;;;;4971889;28;20039;-80
2021/07/21 02:49:45;;;;;;;4.25;1.63;;;15.90;72.60;;;;;;4987282;28;20039;-80
2021/07/21 02:52:24;;;;;;;3.92;1.52;;;15.90;72.70;;;;;;4977270;28;20057;-80
2021/07/21 02:55:04;;;;;;;3.65;1.45;;;15.90;72.80;;;;;;5002380;28;20101;-79
2021/07/21 02:57:43;;;;;;;4.30;2.15;;;15.80;72.70;;;;;;4987762;28;20078;-80
2021/07/21 03:00:17;;;;;;;4.25;1.50;;;15.80;72.80;;;;;;4982972;28;20058;-80
2021/07/21 03:02:56;;;;;;;4.40;1.70;;;15.80;72.90;;;;;;4987499;28;20074;-79
2021/07/21 03:05:27;;;;;;;3.63;1.42;;;15.80;73.00;;;;;;5004849;28;20063;-79
2021/07/21 03:08:02;;;;;;;3.50;1.48;;;15.80;73.00;;;;;;4966598;28;20056;-80
2021/07/21 03:10:32;;;;;;;3.47;1.70;;;15.80;73.10;;;;;;4986514;28;20058;-80
2021/07/21 03:13:24;;;;;;;3.45;1.48;;;15.80;73.20;;;;;;4997176;28;20046;-74
2021/07/21 03:15:57;;;;;;;4.53;1.80;;;15.80;73.30;;;;;;4986938;28;20050;-75
2021/07/21 03:18:50;;;;;;;3.72;1.80;;;15.70;73.30;;;;;;4959865;28;20058;-74
2021/07/21 03:21:24;;;;;;;4.97;1.95;;;15.70;73.40;;;;;;5001078;28;20518;-75
2021/07/21 03:24:01;;;;;;;4.30;1.52;;;15.70;73.50;;;;;;4984678;28;20066;-74
2021/07/21 03:26:59;;;;;;;4.65;1.83;;;15.70;73.60;;;;;;4976141;28;20051;-75
2021/07/21 03:29:54;;;;;;;3.97;1.77;;;15.70;73.70;;;;;;4966710;28;20145;-74
2021/07/21 03:32:27;;;;;;;4.72;1.67;;;15.70;73.70;;;;;;4984402;28;20099;-74
2021/07/21 03:34:58;;;;;;;4.65;2.05;;;15.70;73.70;;;;;;4959670;28;20419;-74
2021/07/21 03:37:28;;;;;;;3.78;1.75;;;15.70;73.80;;;;;;4997419;28;20146;-75
2021/07/21 03:40:05;;;;;;;4.28;1.90;;;15.60;73.90;;;;;;4971989;28;20093;-75
2021/07/21 03:42:39;;;;;;;3.75;1.63;;;15.70;74.00;;;;;;4986943;28;20054;-74
2021/07/21 03:45:11;;;;;;;4.03;1.77;;;15.60;74.00;;;;;;4973321;28;20454;-74
2021/07/21 03:47:42;;;;;;;4.00;1.92;;;15.60;74.10;;;;;;4971727;28;20137;-74
2021/07/21 03:50:11;;;;;;;4.50;1.90;;;15.60;74.20;;;;;;4990839;28;20091;-74
2021/07/21 03:52:44;;;;;;;4.72;2.25;;;15.60;74.10;;;;;;4975396;28;20101;-74
2021/07/21 03:55:15;;;;;;;5.80;2.25;;;15.60;74.20;;;;;;4990266;28;20042;-74
2021/07/21 03:57:57;;;;;;;3.35;1.63;;;15.60;74.30;;;;;;4989267;28;20062;-75
2021/07/21 04:00:35;;;;;;;4.90;2.10;;;15.60;74.40;;;;;;4951612;28;20054;-75
2021/07/21 04:03:07;;;;;;;3.75;1.55;;;15.60;74.50;;;;;;4977160;28;20351;-74
2021/07/21 04:06:01;;;;;;;4.28;1.88;;;15.70;74.50;;;;;;4985860;28;20046;-74
2021/07/21 04:08:43;;;;;;;3.85;1.83;;;15.60;74.50;;;;;;4988851;28;20051;-75
2021/07/21 04:11:12;;;;;;;4.15;1.85;;;15.60;74.50;;;;;;4987859;28;20058;-80
2021/07/21 04:13:40;;;;;;;4.40;2.00;;;15.60;74.50;;;;;;4973112;28;20061;-74
2021/07/21 04:16:20;;;;;;;3.78;1.88;;;15.70;74.60;;;;;;4989019;28;20541;-75
2021/07/21 04:18:48;;;;;;;4.47;2.00;;;15.70;75.30;;;;;;4985961;28;20073;-74
2021/07/21 04:21:17;;;;;;;5.60;2.75;;;15.70;74.70;;;;;;4971008;28;20081;-74
2021/07/21 04:23:49;;;;;;;4.97;2.17;;;15.70;74.80;;;;;;5004705;28;20043;-79
2021/07/21 04:26:17;;;;;;;4.90;2.22;;;15.70;74.70;;;;;;4971663;28;20051;-80
2021/07/21 04:28:46;;;;;;;4.85;1.95;;;15.70;74.70;;;;;;5002904;28;20037;-79
2021/07/21 04:31:14;;;;;;;4.47;2.13;;;15.70;74.80;;;;;;5003360;28;20130;-79
2021/07/21 04:33:44;;;;;;;4.28;2.50;;;15.80;74.80;;;;;;4973315;28;20468;-80
2021/07/21 04:36:13;;;;;;;4.68;2.13;;;15.80;74.80;;;;;;4954137;28;20051;-75
2021/07/21 04:38:49;;;;;;;5.90;2.40;;;15.80;74.90;;;;;;4992752;28;20046;-74
2021/07/21 04:41:28;;;;;;;5.07;2.30;;;15.80;75.50;;;;;;4973648;28;20138;-74
2021/07/21 04:44:22;;;;;;;4.45;2.00;;;15.90;75.00;;;;;;4973446;28;20066;-74
2021/07/21 04:46:58;;;;;;;4.85;2.50;;;15.90;75.00;;;;;;4971764;28;20042;-75
2021/07/21 04:49:27;;;;;;;5.57;2.72;;;15.90;75.00;;;;;;4981650;28;20046;-75
2021/07/21 04:52:01;;;;;;;5.05;2.35;;;16.00;75.10;;;;;;4970950;28;20495;-76
2021/07/21 04:54:30;;;;;;;7.25;4.20;;;16.00;75.10;;;;;;4995535;28;20070;-75
2021/07/21 04:56:58;;;;;;;6.38;3.35;;;16.10;75.00;;;;;;4988093;28;20043;-75
2021/07/21 04:59:34;;;;;;;5.25;3.03;;;16.20;75.00;;;;;;4973614;28;20364;-75
2021/07/21 05:02:02;;;;;;;5.03;3.13;;;16.30;75.00;;;;;;4987849;28;20054;-74
2021/07/21 05:04:29;;;;;;;5.32;2.78;;;16.30;74.90;;;;;;4956191;28;20036;-74
2021/07/21 05:07:11;;;;;;;6.65;2.80;;;16.40;74.90;;;;;;4996089;28;20047;-74
2021/07/21 05:09:45;;;;;;;7.15;3.00;;;16.50;74.90;;;;;;5001643;28;20047;-75
2021/07/21 05:12:13;;;;;;;6.78;3.22;;;16.60;74.80;;;;;;4971803;28;20173;-74
2021/07/21 05:14:50;;;;;;;5.95;2.67;;;16.70;74.80;;;;;;4957224;28;20054;-75
2021/07/21 05:17:40;;;;;;;5.90;3.03;;;16.80;74.70;;;;;;4983744;28;20118;-74
2021/07/21 05:20:19;;;;;;;6.10;3.25;;;16.90;74.60;;;;;;4970576;28;20094;-74
2021/07/21 05:22:56;;;;;;;6.20;3.00;;;17.00;74.50;;;;;;4990390;28;20403;-74
2021/07/21 05:25:29;;;;;;;5.85;3.28;;;17.10;74.30;;;;;;4980769;28;20050;-74
2021/07/21 05:28:17;;;;;;;7.40;3.38;;;17.30;74.20;;;;;;4984159;28;20050;-75
2021/07/21 05:30:44;;;;;;;5.35;3.38;;;17.30;74.10;;;;;;4987748;28;20082;-74
2021/07/21 05:33:12;;;;;;;8.00;3.50;;;17.40;74.00;;;;;;4971264;28;20521;-75
2021/07/21 05:35:43;;;;;;;6.90;2.92;;;17.50;73.90;;;;;;4985549;28;20086;-75
2021/07/21 05:38:15;;;;;;;5.80;3.00;;;17.60;73.80;;;;;;4968698;28;20034;-74
2021/07/21 05:40:43;;;;;;;5.20;2.97;;;17.60;73.70;;;;;;4953632;28;20057;-75
2021/07/21 05:43:33;;;;;;;7.13;3.35;;;17.70;73.60;;;;;;4969304;28;20051;-74
2021/07/21 05:46:05;;;;;;;7.13;3.95;;;17.70;73.50;;;;;;4956171;28;20041;-74
2021/07/21 05:48:38;;;;;;;6.22;3.67;;;17.80;73.40;;;;;;4988518;28;20043;-74
2021/07/21 05:51:27;;;;;;;7.20;3.65;;;17.90;73.40;;;;;;4964648;28;20531;-74
2021/07/21 05:54:03;;;;;;;6.35;3.38;;;17.90;73.40;;;;;;4971663;28;20051;-74
2021/07/21 05:56:31;;;;;;;5.93;3.53;;;18.00;73.30;;;;;;4968173;28;20131;-74
2021/07/21 05:58:59;;;;;;;7.53;4.07;;;18.10;73.20;;;;;;4998794;28;20500;-74
2021/07/21 06:01:31;;;;;;;6.32;3.53;;;18.10;73.10;;;;;;4983684;28;20061;-75
2021/07/21 06:04:02;;;;;;;5.72;2.75;;;18.20;73.00;;;;;;4953834;28;20047;-74
2021/07/21 06:06:32;;;;;;;7.30;3.33;;;18.20;72.90;;;;;;5002715;28;20462;-75
2021/07/21 06:08:59;;;;;;;6.97;3.53;;;18.30;72.80;;;;;;4985125;28;20047;-74
2021/07/21 06:11:32;;;;;;;7.47;3.70;;;18.40;72.80;;;;;;4986153;28;20118;-74
2021/07/21 06:14:00;;;;;;;7.35;4.03;;;18.50;72.80;;;;;;4985098;28;20057;-74
2021/07/21 06:16:31;;;;;;;5.63;3.30;;;18.50;72.70;;;;;;4956902;28;20035;-74
2021/07/21 06:18:58;;;;;;;6.47;3.10;;;18.60;72.70;;;;;;4962034;28;20047;-75
2021/07/21 06:21:26;;;;;;;6.60;3.17;;;18.60;72.60;;;;;;4999094;28;20082;-74
2021/07/21 06:24:29;;;;;;;6.65;3.03;;;18.60;72.50;;;;;;4943414;28;20047;-74
2021/07/21 06:27:02;;;;;;;6.82;4.18;;;18.70;72.50;;;;;;4992952;28;20050;-74
2021/07/21 06:29:34;;;;;;;5.60;3.15;;;18.70;72.50;;;;;;4984005;28;20147;-73
2021/07/21 06:32:03;;;;;;;5.18;3.15;;;18.80;72.40;;;;;;4980663;28;20039;-74
2021/07/21 06:34:30;;;;;;;7.70;3.15;;;18.80;72.40;;;;;;4972153;28;20055;-74
2021/07/21 06:37:08;;;;;;;5.40;3.42;;;18.90;72.90;;;;;;4982242;28;20571;-74
2021/07/21 06:39:36;;;;;;;6.05;3.90;;;19.00;72.30;;;;;;4969405;28;20039;-75
2021/07/21 06:42:04;;;;;;;6.07;3.72;;;19.00;72.20;;;;;;4976577;28;20050;-74
2021/07/21 06:44:32;;;;;;;5.65;3.08;;;19.10;72.10;;;;;;4971100;28;20396;-74
2021/07/21 06:47:26;;;;;;;5.60;3.08;;;19.10;72.00;;;;;;4967860;28;20166;-74
2021/07/21 06:50:19;;;;;;;6.10;3.00;;;19.20;72.00;;;;;;4965063;28;20051;-73
2021/07/21 06:52:47;;;;;;;4.97;2.50;;;19.30;71.90;;;;;;5000985;28;20043;-73
2021/07/21 06:55:34;;;;;;;6.22;3.78;;;19.30;71.80;;;;;;4968207;28;20816;-74
2021/07/21 06:58:07;;;;;;;5.28;2.97;;;19.40;71.70;;;;;;4986218;28;20126;-74
2021/07/21 07:00:40;;;;;;;6.07;3.35;;;19.50;71.70;;;;;;4971231;28;20043;-74
2021/07/21 07:03:30;;;;;;;7.97;4.03;;;19.50;71.50;;;;;;4970604;28;20051;-73
2021/07/21 07:06:26;;;;;;;6.05;3.30;;;19.60;71.40;;;;;;4978128;28;20042;-74
2021/07/21 07:09:32;;;;;;;6.60;3.33;;;19.60;71.20;;;;;;4939964;28;20047;-76
2021/07/21 07:12:20;;;;;;;7.00;3.22;;;19.70;71.20;;;;;;4900994;28;20568;-76
2021/07/21 07:14:47;;;;;;;6.15;3.13;;;19.80;71.10;;;;;;4953228;28;20559;-76
2021/07/21 07:17:14;;;;;;;7.40;3.97;;;19.80;70.90;;;;;;4970797;28;20077;-76
2021/07/21 07:19:41;;;;;;;7.85;3.60;;;19.90;70.90;;;;;;4968529;28;20067;-76
2021/07/21 07:22:08;;;;;;;6.53;3.20;;;19.90;71.40;;;;;;4966455;28;20082;-75
2021/07/21 07:24:36;;;;;;;6.03;3.55;;;20.00;70.80;;;;;;4981482;28;20046;-75
2021/07/21 07:27:04;;;;;;;6.43;3.05;;;20.00;70.70;;;;;;4963921;28;20484;-74
2021/07/21 07:29:31;;;;;;;7.57;3.53;;;20.10;70.70;;;;;;4970506;28;20054;-76
2021/07/21 07:31:58;;;;;;;7.40;3.33;;;20.10;70.50;;;;;;4950948;28;20047;-76
2021/07/21 07:34:25;;;;;;;8.15;3.60;;;20.20;70.50;;;;;;4970797;28;20059;-76
2021/07/21 07:36:52;;;;;;;6.70;3.60;;;20.20;70.30;;;;;;4985388;28;20131;-75
2021/07/21 07:39:21;;;;;;;6.55;3.60;;;20.30;70.30;;;;;;4968836;28;20137;-75
2021/07/21 07:41:48;;;;;;;5.43;3.33;;;20.30;70.10;;;;;;4971644;28;20074;-76
2021/07/21 07:44:15;;;;;;;6.13;2.95;;;20.40;70.00;;;;;;4970348;28;20094;-75
2021/07/21 07:46:42;;;;;;;7.00;3.63;;;20.40;69.90;;;;;;4985195;28;20067;-75
2021/07/21 07:49:10;;;;;;;6.45;3.50;;;20.40;69.80;;;;;;4986497;28;20066;-81
2021/07/21 07:51:37;;;;;;;7.60;4.38;;;20.40;69.70;;;;;;4971766;28;21007;-81
2021/07/21 07:54:04;;;;;;;5.97;3.30;;;20.40;70.20;;;;;;4989235;28;20051;-83
2021/07/21 07:56:32;;;;;;;6.93;3.40;;;20.40;69.50;;;;;;5000754;28;20039;-81
2021/07/21 07:59:00;;;;;;;8.00;4.38;;;20.50;69.50;;;;;;4954491;28;20791;-78
2021/07/21 08:01:27;;;;;;;5.90;3.35;;;20.60;69.40;;;;;;4973845;28;20507;-83
2021/07/21 08:03:55;;;;;;;6.97;3.30;;;20.60;69.20;;;;;;4969880;28;20943;-80
2021/07/21 08:06:22;;;;;;;6.63;2.60;;;20.60;69.20;;;;;;4967576;28;20118;-82
2021/07/21 08:08:49;;;;;;;6.03;3.10;;;20.70;69.10;;;;;;4967160;28;20453;-80
2021/07/21 08:11:16;;;;;;;6.38;3.63;;;20.80;68.90;;;;;;4984286;28;20039;-81
2021/07/21 08:13:44;;;;;;;5.70;2.90;;;20.90;68.90;;;;;;5001076;28;20058;-80
2021/07/21 08:16:13;;;;;;;5.53;2.80;;;20.90;68.90;;;;;;4971716;28;20039;-80
2021/07/21 08:18:40;;;;;;;7.40;3.30;;;20.90;68.90;;;;;;4988685;28;20050;-75
2021/07/21 08:21:08;;;;;;;4.20;2.75;;;20.90;69.10;;;;;;4969081;28;20043;-76
2021/07/21 08:23:35;;;;;;;7.40;3.08;;;20.90;69.20;;;;;;4988314;28;20039;-75
2021/07/21 08:26:02;;;;;;;5.43;3.30;;;20.80;69.40;;;;;;4973652;28;20039;-75
2021/07/21 08:28:31;;;;;;;5.88;3.70;;;20.80;69.20;;;;;;4981314;28;20550;-75
2021/07/21 08:30:58;;;;;;;5.57;3.08;;;20.90;69.20;;;;;;4977824;28;20042;-75
2021/07/21 08:33:25;;;;;;;6.32;3.05;;;20.90;69.20;;;;;;4973144;28;20146;-75
2021/07/21 08:35:52;;;;;;;6.63;3.10;;;21.00;69.70;;;;;;4970387;28;20058;-75
2021/07/21 08:38:19;;;;;;;5.43;3.03;;;21.20;68.90;;;;;;4972540;28;20373;-76
2021/07/21 08:40:48;;;;;;;6.72;3.10;;;21.30;68.70;;;;;;4969444;28;20066;-76
2021/07/21 08:43:26;;;;;;;6.88;3.10;;;21.40;68.70;;;;;;4969380;28;20356;-75
2021/07/21 08:45:54;;;;;;;4.00;2.72;;;21.40;69.20;;;;;;4971971;28;20051;-75
2021/07/21 08:48:21;;;;;;;6.70;3.03;;;21.60;68.30;;;;;;4989206;28;20047;-75
2021/07/21 08:50:48;;;;;;;6.45;2.85;;;21.70;68.00;;;;;;4985271;28;20043;-75
2021/07/21 08:53:18;;;;;;;4.32;2.03;;;21.90;67.70;;;;;;4988859;28;20042;-76
2021/07/21 08:55:47;;;;;;;4.85;2.35;;;22.00;67.40;;;;;;4989231;28;20046;-75
2021/07/21 08:58:14;;;;;;;4.93;2.42;;;22.10;67.20;;;;;;4973213;28;20154;-75
2021/07/21 09:00:41;;;;;;;7.30;2.65;;;22.20;66.80;;;;;;4988403;28;20039;-75
2021/07/21 09:03:10;;;;;;;5.88;2.33;;;22.30;66.50;;;;;;4970749;28;20042;-75
2021/07/21 09:05:37;;;;;;;4.57;2.30;;;22.40;66.20;;;;;;4967629;28;20156;-76
2021/07/21 09:08:05;;;;;;;4.57;2.35;;;22.60;65.90;;;;;;4969546;28;20126;-76
2021/07/21 09:10:32;;;;;;;4.10;2.00;;;22.60;65.40;;;;;;4988945;28;20093;-75
2021/07/21 09:13:03;;;;;;;4.22;1.85;;;22.70;65.00;;;;;;4966717;28;20038;-76
2021/07/21 09:15:30;;;;;;;4.00;2.15;;;22.90;64.70;;;;;;4987287;28;20478;-75
2021/07/21 09:18:09;;;;;;;4.00;1.67;;;23.00;64.30;;;;;;5003838;28;20077;-74
2021/07/21 09:20:41;;;;;;;3.88;1.92;;;23.10;64.00;;;;;;4986501;28;20122;-75
2021/07/21 09:23:09;;;;;;;4.13;2.08;;;23.20;63.60;;;;;;4973380;28;20050;-76
2021/07/21 09:25:41;;;;;;;4.07;1.30;;;23.30;63.00;;;;;;4975668;28;20046;-74
2021/07/21 09:28:12;;;;;;;4.05;1.83;;;23.40;62.70;;;;;;5004050;28;20054;-76
2021/07/21 09:30:44;;;;;;;3.88;1.17;;;23.40;62.30;;;;;;4988308;28;20057;-76
2021/07/21 09:33:13;;;;;;;3.05;1.25;;;23.50;62.00;;;;;;4964176;28;20098;-77
2021/07/21 09:35:47;;;;;;;2.30;1.20;;;23.60;61.70;;;;;;4986965;28;20097;-78
2021/07/21 09:38:19;;;;;;;2.45;1.33;;;23.70;61.30;;;;;;4987125;28;20487;-77
2021/07/21 09:40:52;;;;;;;4.03;1.90;;;23.70;61.10;;;;;;4987414;28;20487;-78
2021/07/21 09:43:22;;;;;;;3.33;1.75;;;23.80;60.50;;;;;;4988612;28;20483;-77
2021/07/21 09:45:50;;;;;;;3.67;1.77;;;23.80;60.20;;;;;;4972353;28;20137;-77
2021/07/21 09:48:18;;;;;;;3.03;1.65;;;23.90;60.10;;;;;;4972148;28;20503;-75
2021/07/21 09:50:47;;;;;;;3.25;1.50;;;24.00;59.90;;;;;;4972806;28;20046;-77
2021/07/21 09:53:15;;;;;;;3.05;1.40;;;24.10;59.30;;;;;;4988124;28;20042;-77
2021/07/21 09:55:47;;;;;;;4.53;1.90;;;24.30;59.20;;;;;;4987618;28;20047;-77
2021/07/21 09:58:24;;;;;;;3.78;1.63;;;24.30;58.30;;;;;;4994376;28;20511;-82
2021/07/21 10:00:51;;;;;;;3.25;1.58;;;24.30;57.70;;;;;;4971961;28;20042;-83
2021/07/21 10:03:24;;;;;;;3.95;1.70;;;24.40;57.80;;;;;;4972620;28;20043;-85
2021/07/21 10:06:06;;;;;;;3.45;1.70;;;24.50;57.50;;;;;;4993274;28;20063;-83
2021/07/21 10:08:39;;;;;;;3.00;1.52;;;24.60;57.30;;;;;;4974040;28;20030;-79
2021/07/21 10:11:29;;;;;;;4.35;2.10;;;24.60;57.30;;;;;;5002358;28;20602;-85
2021/07/21 10:14:03;;;;;;;4.93;2.28;;;24.70;56.70;;;;;;4965975;28;20514;-80
2021/07/21 10:16:34;;;;;;;2.95;1.70;;;24.80;56.30;;;;;;4964315;28;20039;-86
2021/07/21 10:19:25;;;;;;;6.32;2.47;;;24.90;56.00;;;;;;4968354;28;20487;-86
2021/07/21 10:22:03;;;;;;;3.60;1.60;;;25.20;55.60;;;;;;4991033;28;20059;-83
2021/07/21 10:24:33;;;;;;;3.30;1.55;;;25.30;55.50;;;;;;4983181;28;20053;-84
2021/07/21 10:27:02;;;;;;;3.70;1.65;;;25.50;55.20;;;;;;4992062;28;20047;-81
2021/07/21 10:29:30;;;;;;;4.30;2.08;;;25.70;55.00;;;;;;4963566;28;20407;-86
2021/07/21 10:31:57;;;;;;;3.33;1.55;;;25.80;54.80;;;;;;4987130;28;20376;-86
2021/07/21 10:34:25;;;;;;;3.30;1.40;;;25.90;54.70;;;;;;4972871;28;20051;-84
2021/07/21 10:36:53;;;;;;;3.95;1.60;;;26.10;54.50;;;;;;4978215;28;20047;-86
2021/07/21 10:39:27;;;;;;;4.05;1.83;;;26.20;54.10;;;;;;4970329;28;20546;-83
2021/07/21 10:41:55;;;;;;;3.30;1.73;;;26.30;53.80;;;;;;4964563;28;20097;-80
2021/07/21 10:44:23;;;;;;;4.25;2.58;;;26.40;53.30;;;;;;4983935;28;20039;-81
2021/07/21 10:46:54;;;;;;;4.32;2.38;;;26.30;52.40;;;;;;4971071;28;20467;-81
2021/07/21 10:49:41;;;;;;;4.35;2.38;;;26.20;52.70;;;;;;4966039;28;20046;-81
2021/07/21 10:55:04;;;;;;;3.95;1.90;;;26.10;53.10;;;;;;4969823;28;20047;-81
2021/07/21 11:00:28;;;;;;;3.50;1.98;;;26.20;52.70;;;;;;4968159;28;20079;-82
2021/07/21 11:03:19;;;;;;;3.50;1.80;;;26.30;52.50;;;;;;4991537;28;20054;-82
2021/07/21 11:05:57;;;;;;;3.42;1.83;;;26.40;52.90;;;;;;4967533;28;20046;-83
2021/07/21 11:08:26;;;;;;;3.72;1.90;;;26.50;52.20;;;;;;4968497;28;20035;-78
2021/07/21 11:10:56;;;;;;;3.42;1.67;;;26.50;52.10;;;;;;4966078;28;20067;-78
2021/07/21 11:13:29;;;;;;;4.30;2.58;;;26.50;52.00;;;;;;4969990;28;20090;-78
2021/07/21 11:15:57;;;;;;;4.45;2.03;;;26.40;52.00;;;;;;4983517;28;20043;-84
2021/07/21 11:18:28;;;;;;;3.58;2.08;;;26.50;51.80;;;;;;4974607;28;20462;-84
2021/07/21 11:21:02;;;;;;;5.15;2.10;;;26.70;51.70;;;;;;5004851;28;20094;-85
2021/07/21 11:23:50;;;;;;;4.68;2.40;;;26.70;51.30;;;;;;4992709;28;20043;-82
2021/07/21 11:26:35;;;;;;;4.80;2.80;;;26.60;50.70;;;;;;4974515;28;20479;-83
2021/07/21 11:29:24;;;;;;;4.32;2.40;;;26.40;50.80;;;;;;4987791;28;20051;-80
2021/07/21 11:31:54;;;;;;;5.15;2.63;;;26.40;50.90;;;;;;4988396;28;20046;-81
2021/07/21 11:34:39;;;;;;;2.92;1.65;;;26.50;50.80;;;;;;4976982;28;20047;-81
2021/07/21 11:37:18;;;;;;;3.83;1.92;;;26.80;50.50;;;;;;4952229;28;20057;-82
2021/07/21 11:39:56;;;;;;;3.53;1.83;;;27.00;50.40;;;;;;4989135;28;20513;-81
2021/07/21 11:42:23;;;;;;;3.70;2.30;;;27.30;50.20;;;;;;4977407;28;20049;-82
2021/07/21 11:45:12;;;;;;;3.28;1.90;;;27.40;49.80;;;;;;4986296;28;20043;-84
2021/07/21 11:47:41;;;;;;;3.85;1.80;;;27.60;49.80;;;;;;4968553;28;20089;-83
2021/07/21 11:50:20;;;;;;;3.70;2.10;;;27.80;49.40;;;;;;4969052;28;20125;-80
2021/07/21 11:52:56;;;;;;;4.07;2.25;;;27.90;49.10;;;;;;4968526;28;20039;-80
2021/07/21 11:55:28;;;;;;;3.63;1.75;;;28.10;48.90;;;;;;4970964;28;20270;-80
2021/07/21 11:57:57;;;;;;;3.38;1.83;;;28.40;48.80;;;;;;5001628;28;20055;-79
2021/07/21 12:00:25;;;;;;;4.15;1.90;;;28.60;48.50;;;;;;4969751;28;20047;-84
2021/07/21 12:03:00;;;;;;;3.13;1.60;;;28.40;48.30;;;;;;4991392;28;20034;-82
2021/07/21 12:05:28;;;;;;;3.80;2.35;;;28.20;48.60;;;;;;4975373;28;20053;-80
2021/07/21 12:08:08;;;;;;;4.63;2.42;;;27.90;48.30;;;;;;4987899;28;20142;-81
2021/07/21 12:10:36;;;;;;;4.70;2.70;;;27.90;48.30;;;;;;4958838;28;20050;-80
2021/07/21 12:13:10;;;;;;;4.47;2.40;;;27.90;48.40;;;;;;4974309;28;20105;-80
2021/07/21 12:15:38;;;;;;;3.30;1.92;;;28.10;48.20;;;;;;4966622;28;20447;-79
2021/07/21 12:18:14;;;;;;;5.32;2.80;;;28.60;48.30;;;;;;5008099;28;20046;-80
2021/07/21 12:20:44;;;;;;;4.15;2.53;;;28.90;47.00;;;;;;5007318;28;20058;-80
2021/07/21 12:23:13;;;;;;;3.63;2.20;;;28.80;47.10;;;;;;5011036;28;20050;-80
2021/07/21 12:25:40;;;;;;;4.97;2.08;;;28.80;47.40;;;;;;4989559;28;20534;-81
2021/07/21 12:28:10;;;;;;;5.75;3.03;;;28.90;47.10;;;;;;4970175;28;20106;-80
2021/07/21 12:30:37;;;;;;;4.78;2.58;;;28.60;47.00;;;;;;4974851;28;20042;-76
2021/07/21 12:33:06;;;;;;;4.47;2.35;;;28.70;46.90;;;;;;4988462;28;20069;-76
2021/07/21 12:35:34;;;;;;;3.80;1.98;;;28.60;47.10;;;;;;4982151;28;20078;-76
2021/07/21 12:38:03;;;;;;;4.18;2.20;;;28.50;47.20;;;;;;5002954;28;20117;-76
2021/07/21 12:40:32;;;;;;;4.75;2.78;;;28.30;47.40;;;;;;4973536;28;20045;-77
2021/07/21 12:43:02;;;;;;;3.42;2.17;;;28.10;47.60;;;;;;4979918;28;20066;-76
2021/07/21 12:45:33;;;;;;;4.05;1.85;;;27.90;47.70;;;;;;4970919;28;20053;-76
2021/07/21 12:48:03;;;;;;;4.38;2.35;;;27.70;47.80;;;;;;4969343;28;20137;-75
2021/07/21 12:50:32;;;;;;;4.00;2.47;;;27.60;47.90;;;;;;4968100;28;20487;-75
2021/07/21 12:53:02;;;;;;;3.40;1.98;;;27.50;48.10;;;;;;4983403;28;20518;-77
2021/07/21 12:55:37;;;;;;;5.10;2.53;;;27.30;48.10;;;;;;4969339;28;20053;-76
2021/07/21 12:58:06;;;;;;;5.30;2.78;;;27.20;48.20;;;;;;4967482;28;20038;-77
2021/07/21 13:00:34;;;;;;;4.78;2.60;;;27.90;47.60;;;;;;4967720;28;20125;-76
2021/07/21 13:03:07;;;;;;;4.55;2.67;;;28.90;46.50;;;;;;5000078;28;20411;-76
2021/07/21 13:05:41;;;;;;;4.95;2.53;;;29.80;45.30;;;;;;4997153;28;20047;-77
2021/07/21 13:08:34;;;;;;;3.78;2.40;;;30.10;44.70;;;;;;4969572;28;20403;-76
2021/07/21 13:11:10;;;;;;;3.65;2.03;;;30.50;44.70;;;;;;4982339;28;20043;-76
2021/07/21 13:13:40;;;;;;;3.67;2.05;;;30.80;44.30;;;;;;4973301;28;20039;-75
2021/07/21 13:16:12;;;;;;;4.70;2.58;;;30.70;45.00;;;;;;4993693;28;20058;-77
2021/07/21 13:18:41;;;;;;;3.35;1.90;;;30.30;44.40;;;;;;4984889;28;20057;-76
2021/07/21 13:21:32;;;;;;;3.50;2.17;;;29.70;45.20;;;;;;4963932;28;20457;-75
2021/07/21 13:24:11;;;;;;;4.75;2.45;;;29.40;45.60;;;;;;4972934;28;20065;-77
2021/07/21 13:26:51;;;;;;;3.67;2.33;;;29.40;46.00;;;;;;4971928;28;20118;-79
2021/07/21 13:29:18;;;;;;;4.18;2.17;;;29.40;45.50;;;;;;4968980;28;20042;-75